createdAt,value
2023-04-19T00:02:26.913Z,32.78
2023-04-19T00:04:55.783Z,32.55
2023-04-19T00:07:23.050Z,31.65
2023-04-19T00:09:50.159Z,28.73
2023-04-19T00:12:17.281Z,27.13
2023-04-19T00:14:44.389Z,29.85
2023-04-19T00:17:11.799Z,24.95
2023-04-19T00:19:39.205Z,25.55
2023-04-19T00:22:06.402Z,22.75
2023-04-19T00:24:33.515Z,24.67
2023-04-19T00:27:00.693Z,21.33
2023-04-19T00:29:28.176Z,26.92
2023-04-19T00:31:55.274Z,22.92
2023-04-19T00:34:22.372Z,25.65
2023-04-19T00:36:49.496Z,29.98
2023-04-19T00:39:16.592Z,27.85
2023-04-19T00:41:44.216Z,32.25
2023-04-19T00:44:11.321Z,25.33
2023-04-19T00:46:38.832Z,27.42
2023-04-19T00:49:06.098Z,26.00
2023-04-19T00:51:33.184Z,27.33
2023-04-19T00:54:00.260Z,29.25
2023-04-19T00:56:27.745Z,30.25
2023-04-19T00:58:55.579Z,30.05
2023-04-19T01:01:22.820Z,28.15
2023-04-19T01:03:50.088Z,27.58
2023-04-19T01:06:17.281Z,26.15
2023-04-19T01:08:44.397Z,27.80
2023-04-19T01:11:11.525Z,27.63
2023-04-19T01:13:38.619Z,33.80
2023-04-19T01:16:06.273Z,34.28
2023-04-19T01:18:37.481Z,41.50
2023-04-19T01:21:04.810Z,37.97
2023-04-19T01:23:31.901Z,39.00
2023-04-19T01:25:59.029Z,40.78
2023-04-19T01:28:26.148Z,43.95
2023-04-19T01:30:54.139Z,43.10
2023-04-19T01:33:21.821Z,45.08
2023-04-19T01:35:48.981Z,47.15
2023-04-19T01:38:16.468Z,45.95
2023-04-19T01:40:43.644Z,41.83
2023-04-19T01:43:11.899Z,42.65
2023-04-19T01:45:39.016Z,41.75
2023-04-19T01:48:06.406Z,45.88
2023-04-19T01:50:33.554Z,46.85
2023-04-19T01:53:00.754Z,46.00
2023-04-19T01:55:27.927Z,38.10
2023-04-19T01:57:55.204Z,38.58
2023-04-19T02:00:22.534Z,34.22
2023-04-19T02:02:49.855Z,33.40
2023-04-19T02:05:17.241Z,32.97
2023-04-19T02:07:44.424Z,34.10
2023-04-19T02:10:12.014Z,34.28
2023-04-19T02:12:39.232Z,33.97
2023-04-19T02:15:06.672Z,34.65
2023-04-19T02:17:33.864Z,36.25
2023-04-19T02:20:00.999Z,43.00
2023-04-19T02:22:28.107Z,48.15
2023-04-19T02:24:55.225Z,44.72
2023-04-19T02:27:22.340Z,47.42
2023-04-19T02:29:49.459Z,50.30
2023-04-19T02:32:16.652Z,42.63
2023-04-19T02:34:43.761Z,45.08
2023-04-19T02:37:10.902Z,41.97
2023-04-19T02:39:38.040Z,51.55
2023-04-19T02:42:05.179Z,48.88
2023-04-19T02:44:32.293Z,47.22
2023-04-19T02:46:59.495Z,46.20
2023-04-19T02:49:26.837Z,44.90
2023-04-19T02:51:53.982Z,45.28
2023-04-19T02:54:21.109Z,46.00
2023-04-19T02:56:48.219Z,41.72
2023-04-19T02:59:15.317Z,44.83
2023-04-19T03:01:42.631Z,43.33
2023-04-19T03:04:09.858Z,51.55
2023-04-19T03:06:37.780Z,58.45
2023-04-19T03:09:04.974Z,56.00
2023-04-19T03:11:32.061Z,57.08
2023-04-19T03:13:59.135Z,54.97
2023-04-19T03:16:26.722Z,69.72
2023-04-19T03:18:53.893Z,57.72
2023-04-19T03:21:21.052Z,54.85
2023-04-19T03:23:48.204Z,61.00
2023-04-19T03:26:15.310Z,62.90
2023-04-19T03:28:42.435Z,59.50
2023-04-19T03:31:09.565Z,57.15
2023-04-19T03:33:36.662Z,54.17
2023-04-19T03:36:03.873Z,49.47
2023-04-19T03:38:31.175Z,52.95
2023-04-19T03:40:58.262Z,52.75
2023-04-19T03:43:25.424Z,51.55
2023-04-19T03:45:52.582Z,51.05
2023-04-19T03:48:19.707Z,48.20
2023-04-19T03:50:46.823Z,47.60
2023-04-19T03:53:14.324Z,35.17
2023-04-19T03:55:41.435Z,35.55
2023-04-19T03:58:08.562Z,41.17
2023-04-19T04:00:37.030Z,42.65
2023-04-19T04:03:04.294Z,44.65
2023-04-19T04:05:31.674Z,41.28
2023-04-19T04:07:58.929Z,42.17
2023-04-19T04:10:26.043Z,33.30
2023-04-19T04:12:53.179Z,34.65
2023-04-19T04:15:20.439Z,42.88
2023-04-19T04:17:47.599Z,44.13
2023-04-19T04:20:16.477Z,52.42
2023-04-19T04:22:43.902Z,48.40
2023-04-19T04:25:11.036Z,46.72
2023-04-19T04:27:38.139Z,45.28
2023-04-19T04:30:05.877Z,40.08
2023-04-19T04:32:35.856Z,34.10
2023-04-19T04:35:03.698Z,36.20
2023-04-19T04:37:34.055Z,37.97
2023-04-19T04:40:01.702Z,47.90
2023-04-19T04:42:31.443Z,52.88
2023-04-19T04:44:58.758Z,42.67
2023-04-19T04:47:26.295Z,47.60
2023-04-19T04:49:53.741Z,48.70
2023-04-19T04:52:21.270Z,51.72
2023-04-19T04:54:48.426Z,52.55
2023-04-19T04:57:15.895Z,61.60
2023-04-19T04:59:43.038Z,57.53
2023-04-19T05:02:10.940Z,52.60
2023-04-19T05:04:38.089Z,43.88
2023-04-19T05:09:49.734Z,37.60
2023-04-19T05:12:17.104Z,37.78
2023-04-19T05:14:44.229Z,37.35
2023-04-19T05:17:11.330Z,40.65
2023-04-19T05:19:38.484Z,39.10
2023-04-19T05:22:05.689Z,45.30
2023-04-19T05:24:32.825Z,48.53
2023-04-19T05:26:59.986Z,52.03
2023-04-19T05:29:27.076Z,54.55
2023-04-19T05:31:54.342Z,50.42
2023-04-19T05:34:22.371Z,51.80
2023-04-19T05:36:49.620Z,49.15
2023-04-19T05:39:17.259Z,53.08
2023-04-19T05:41:44.526Z,48.47
2023-04-19T05:44:11.631Z,47.55
2023-04-19T05:46:38.845Z,49.53
2023-04-19T05:49:06.012Z,42.78
2023-04-19T05:51:33.153Z,38.97
2023-04-19T05:54:01.195Z,42.25
2023-04-19T05:56:28.326Z,36.90
2023-04-19T05:58:56.318Z,33.47
2023-04-19T06:01:23.973Z,33.65
2023-04-19T06:03:53.503Z,30.75
2023-04-19T06:06:22.550Z,42.72
2023-04-19T06:08:50.816Z,35.90
2023-04-19T06:11:26.534Z,48.22
2023-04-19T06:13:58.896Z,45.45
2023-04-19T06:16:26.859Z,62.28
2023-04-19T06:18:54.044Z,45.88
2023-04-19T06:21:21.172Z,34.42
2023-04-19T06:23:48.330Z,29.92
2023-04-19T06:26:15.484Z,28.80
2023-04-19T06:28:42.604Z,53.00
2023-04-19T06:31:09.815Z,31.05
2023-04-19T06:33:37.029Z,34.35
2023-04-19T06:36:04.293Z,32.60
2023-04-19T06:38:31.493Z,33.38
2023-04-19T06:40:58.608Z,39.28
2023-04-19T06:43:25.815Z,31.25
2023-04-19T06:46:02.913Z,32.65
2023-04-19T06:48:30.056Z,35.00
2023-04-19T06:50:57.468Z,31.70
2023-04-19T06:53:24.839Z,33.10
2023-04-19T06:55:54.308Z,36.88
2023-04-19T06:58:21.432Z,55.13
2023-04-19T07:00:48.580Z,46.58
2023-04-19T07:03:15.837Z,41.42
2023-04-19T07:05:43.033Z,48.60
2023-04-19T07:08:10.170Z,57.55
2023-04-19T07:10:37.281Z,79.18
2023-04-19T07:13:04.459Z,37.55
2023-04-19T07:15:31.579Z,33.92
2023-04-19T07:17:58.721Z,30.52
2023-04-19T07:20:25.928Z,30.00
2023-04-19T07:22:53.147Z,31.13
2023-04-19T07:25:20.359Z,27.02
2023-04-19T07:27:47.535Z,31.65
2023-04-19T07:30:14.714Z,35.80
2023-04-19T07:32:42.148Z,32.00
2023-04-19T07:35:09.527Z,28.70
2023-04-19T07:37:36.653Z,23.17
2023-04-19T07:40:03.983Z,12.60
2023-04-19T07:42:31.214Z,10.75
2023-04-19T07:44:59.652Z,10.73
2023-04-19T07:47:26.806Z,9.35
2023-04-19T07:49:54.100Z,15.77
2023-04-19T07:52:21.267Z,13.88
2023-04-19T07:54:48.414Z,9.48
2023-04-19T07:57:15.566Z,9.05
2023-04-19T07:59:42.778Z,11.07
2023-04-19T08:02:09.994Z,10.55
2023-04-19T08:04:38.095Z,9.60
2023-04-19T08:07:05.464Z,9.48
2023-04-19T08:09:34.313Z,16.33
2023-04-19T08:12:01.669Z,12.80
2023-04-19T08:14:40.464Z,14.07
2023-04-19T08:17:25.112Z,14.20
2023-04-19T08:19:53.080Z,12.70
2023-04-19T08:22:21.195Z,11.48
2023-04-19T08:24:49.883Z,8.00
2023-04-19T08:27:17.017Z,8.45
2023-04-19T08:29:44.140Z,8.48
2023-04-19T08:32:12.045Z,8.10
2023-04-19T08:34:39.672Z,6.90
2023-04-19T08:37:10.346Z,7.15
2023-04-19T08:39:37.840Z,5.65
2023-04-19T08:42:11.018Z,6.80
2023-04-19T08:44:59.522Z,8.27
2023-04-19T08:47:37.215Z,10.90
2023-04-19T08:50:20.332Z,15.05
2023-04-19T08:52:59.089Z,13.23
2023-04-19T08:55:32.752Z,11.77
2023-04-19T08:57:59.911Z,9.65
2023-04-19T09:00:27.063Z,9.57
2023-04-19T09:02:58.629Z,11.02
2023-04-19T09:05:26.167Z,11.45
2023-04-19T09:07:53.525Z,11.90
2023-04-19T09:10:20.939Z,13.65
2023-04-19T09:13:01.984Z,20.42
2023-04-19T09:15:43.690Z,26.13
2023-04-19T09:18:11.179Z,27.67
2023-04-19T09:20:42.427Z,22.00
2023-04-19T09:23:12.546Z,16.25
2023-04-19T09:26:05.824Z,10.70
2023-04-19T09:28:27.759Z,16.48
2023-04-19T09:31:03.488Z,16.70
2023-04-19T09:33:42.144Z,15.70
2023-04-19T09:36:09.561Z,22.92
2023-04-19T09:38:49.109Z,25.77
2023-04-19T09:41:17.411Z,21.15
2023-04-19T09:44:02.341Z,20.52
2023-04-19T09:46:34.877Z,19.23
2023-04-19T09:49:23.213Z,14.68
2023-04-19T09:51:57.847Z,15.45
2023-04-19T09:54:25.281Z,21.95
2023-04-19T09:56:57.387Z,27.58
2023-04-19T09:59:25.941Z,30.00
2023-04-19T10:01:56.601Z,20.13
2023-04-19T10:04:29.465Z,30.15
2023-04-19T10:09:49.628Z,16.67
2023-04-19T10:12:45.659Z,18.63
2023-04-19T10:15:07.344Z,21.35
2023-04-19T10:17:34.530Z,14.10
2023-04-19T10:20:06.883Z,56.80
2023-04-19T10:22:37.717Z,21.65
2023-04-19T10:25:27.889Z,15.50
2023-04-19T10:27:55.028Z,20.20
2023-04-19T10:30:27.122Z,16.63
2023-04-19T10:32:56.317Z,13.68
2023-04-19T10:35:24.863Z,14.15
2023-04-19T10:38:08.053Z,13.07
2023-04-19T10:40:56.700Z,11.00
2023-04-19T10:43:35.751Z,15.05
2023-04-19T10:46:03.852Z,18.15
2023-04-19T10:48:38.728Z,12.45
2023-04-19T10:51:12.221Z,10.23
2023-04-19T10:53:58.308Z,17.27
2023-04-19T10:56:34.656Z,12.43
2023-04-19T10:59:02.251Z,11.88
2023-04-19T11:01:44.979Z,15.85
2023-04-19T11:04:15.829Z,16.85
2023-04-19T11:06:55.353Z,15.75
2023-04-19T11:09:26.224Z,20.20
2023-04-19T11:11:54.012Z,15.05
2023-04-19T11:14:21.631Z,17.50
2023-04-19T11:16:48.879Z,14.50
2023-04-19T11:19:19.284Z,13.23
2023-04-19T11:21:46.924Z,10.60
2023-04-19T11:24:16.277Z,11.18
2023-04-19T11:26:44.209Z,14.95
2023-04-19T11:29:11.305Z,21.13
2023-04-19T11:31:38.734Z,20.90
2023-04-19T11:34:06.014Z,30.27
2023-04-19T11:36:36.693Z,67.15
2023-04-19T11:39:06.437Z,51.90
2023-04-19T11:41:39.699Z,23.10
2023-04-19T11:44:16.938Z,23.17
2023-04-19T11:46:44.261Z,23.10
2023-04-19T11:49:11.407Z,19.63
2023-04-19T11:51:42.419Z,20.10
2023-04-19T11:54:16.975Z,25.35
2023-04-19T11:56:59.640Z,17.55
2023-04-19T11:59:26.786Z,19.83
2023-04-19T12:01:53.964Z,15.55
2023-04-19T12:04:21.980Z,16.25
2023-04-19T12:06:57.431Z,15.88
2023-04-19T12:09:24.565Z,16.27
2023-04-19T12:11:51.782Z,17.70
2023-04-19T12:14:22.864Z,17.67
2023-04-19T12:17:09.272Z,24.50
2023-04-19T12:19:37.249Z,27.10
2023-04-19T12:22:10.940Z,19.25
2023-04-19T12:24:38.711Z,17.25
2023-04-19T12:27:06.073Z,17.85
2023-04-19T12:29:34.381Z,31.60
2023-04-19T12:32:01.560Z,35.72
2023-04-19T12:34:28.829Z,19.40
2023-04-19T12:36:56.192Z,21.95
2023-04-19T12:39:23.712Z,16.23
2023-04-19T12:41:51.134Z,15.07
2023-04-19T12:44:18.252Z,14.98
2023-04-19T12:46:45.404Z,19.20
2023-04-19T12:49:12.510Z,13.95
2023-04-19T12:51:39.634Z,13.38
2023-04-19T12:54:07.596Z,17.40
2023-04-19T12:56:35.130Z,21.70
2023-04-19T12:59:02.381Z,26.23
2023-04-19T13:01:29.669Z,20.85
2023-04-19T13:03:59.365Z,53.50
2023-04-19T13:06:27.749Z,28.77
2023-04-19T13:08:55.249Z,24.45
2023-04-19T13:11:23.523Z,37.58
2023-04-19T13:13:52.018Z,21.33
2023-04-19T13:16:19.777Z,23.95
2023-04-19T13:18:47.107Z,30.75
2023-04-19T13:21:14.263Z,42.28
2023-04-19T13:23:43.008Z,34.63
2023-04-19T13:26:10.624Z,17.77
2023-04-19T13:28:37.800Z,23.70
2023-04-19T13:31:05.595Z,23.23
2023-04-19T13:33:32.813Z,64.28
2023-04-19T13:35:59.973Z,523.38
2023-04-19T13:38:27.094Z,545.92
2023-04-19T13:40:54.289Z,170.00
2023-04-19T13:43:21.792Z,99.75
2023-04-19T13:45:48.932Z,67.10
2023-04-19T13:48:16.060Z,38.58
2023-04-19T13:50:43.254Z,37.45
2023-04-19T13:53:10.563Z,37.10
2023-04-19T13:55:37.726Z,29.10
2023-04-19T13:58:04.859Z,40.03
2023-04-19T14:00:32.023Z,169.23
2023-04-19T14:02:59.275Z,112.80
2023-04-19T14:05:26.503Z,130.85
2023-04-19T14:07:53.611Z,90.57
2023-04-19T14:10:20.791Z,164.35
2023-04-19T14:12:49.071Z,64.18
2023-04-19T14:15:16.358Z,173.65
2023-04-19T14:17:43.462Z,52.28
2023-04-19T14:20:11.217Z,83.68
2023-04-19T14:22:38.330Z,48.22
2023-04-19T14:25:05.992Z,34.95
2023-04-19T14:27:33.120Z,35.45
2023-04-19T14:30:00.323Z,24.35
2023-04-19T14:32:27.588Z,22.77
2023-04-19T14:34:56.155Z,20.35
2023-04-19T14:37:23.892Z,25.55
2023-04-19T14:39:51.173Z,34.17
2023-04-19T14:42:20.131Z,26.65
2023-04-19T14:44:50.616Z,24.20
2023-04-19T14:47:17.705Z,20.83
2023-04-19T14:49:44.832Z,49.72
2023-04-19T14:52:12.027Z,23.35
2023-04-19T14:54:39.231Z,59.47
2023-04-19T14:57:06.530Z,39.35
2023-04-19T14:59:33.722Z,35.50
2023-04-19T15:02:00.853Z,30.63
2023-04-19T15:04:28.176Z,23.05
2023-04-19T15:06:55.552Z,20.75
2023-04-19T15:09:22.746Z,18.45
2023-04-19T15:11:49.982Z,17.95
2023-04-19T15:14:17.076Z,17.35
2023-04-19T15:16:44.229Z,38.40
2023-04-19T15:19:11.363Z,55.67
2023-04-19T15:21:38.535Z,81.80
2023-04-19T15:24:07.506Z,58.50
2023-04-19T15:26:35.756Z,44.97
2023-04-19T15:29:02.902Z,23.05
2023-04-19T15:31:30.129Z,24.65
2023-04-19T15:33:57.326Z,26.70
2023-04-19T15:36:24.452Z,28.77
2023-04-19T15:38:51.560Z,27.35
2023-04-19T15:41:18.741Z,29.13
2023-04-19T15:43:45.868Z,29.73
2023-04-19T15:46:13.460Z,31.23
2023-04-19T15:48:40.934Z,27.40
2023-04-19T15:51:08.659Z,28.15
2023-04-19T15:53:36.192Z,26.70
2023-04-19T15:56:03.491Z,32.33
2023-04-19T15:58:30.591Z,36.90
2023-04-19T16:00:57.703Z,37.75
2023-04-19T16:03:25.002Z,33.50
2023-04-19T16:05:52.268Z,43.53
2023-04-19T16:08:19.722Z,33.60
2023-04-19T16:10:47.175Z,31.33
2023-04-19T16:13:14.453Z,35.00
2023-04-19T16:15:42.034Z,39.78
2023-04-19T16:18:09.280Z,41.58
2023-04-19T16:20:36.597Z,33.67
2023-04-19T16:23:03.819Z,37.28
2023-04-19T16:25:31.291Z,39.17
2023-04-19T16:27:58.390Z,35.70
2023-04-19T16:30:26.874Z,38.20
2023-04-19T16:32:57.011Z,39.75
2023-04-19T16:35:24.509Z,46.28
2023-04-19T16:37:53.230Z,44.63
2023-04-19T16:40:22.278Z,50.42
2023-04-19T16:42:49.420Z,49.20
2023-04-19T16:45:17.682Z,55.88
2023-04-19T16:47:46.032Z,206.85
2023-04-19T16:50:14.138Z,71.65
2023-04-19T16:52:41.384Z,59.03
2023-04-19T16:55:08.641Z,47.22
2023-04-19T16:57:36.650Z,35.33
2023-04-19T17:00:05.658Z,42.40
2023-04-19T17:02:32.966Z,33.60
2023-04-19T17:05:00.490Z,29.13
2023-04-19T17:07:27.813Z,31.92
2023-04-19T17:09:55.453Z,34.75
2023-04-19T17:12:22.669Z,68.57
2023-04-19T17:14:49.789Z,63.00
2023-04-19T17:17:19.922Z,62.75
2023-04-19T17:19:47.126Z,43.30
2023-04-19T17:22:15.018Z,49.63
2023-04-19T17:24:42.284Z,43.38
2023-04-19T17:27:09.536Z,45.80
2023-04-19T17:29:36.913Z,41.97
2023-04-19T17:32:04.289Z,42.58
2023-04-19T17:34:31.477Z,55.08
2023-04-19T17:36:59.458Z,55.30
2023-04-19T17:39:27.971Z,67.30
2023-04-19T17:41:55.761Z,69.15
2023-04-19T17:44:23.195Z,73.20
2023-04-19T17:46:50.457Z,66.25
2023-04-19T17:49:20.015Z,58.15
2023-04-19T17:51:47.545Z,99.55
2023-04-19T17:54:15.003Z,226.63
2023-04-19T17:56:42.198Z,253.80
2023-04-19T17:59:09.401Z,226.35
2023-04-19T18:01:36.668Z,99.78
2023-04-19T18:04:04.440Z,68.03
2023-04-19T18:06:31.852Z,80.82
2023-04-19T18:08:59.139Z,48.88
2023-04-19T18:11:28.313Z,50.75
2023-04-19T18:13:55.826Z,54.78
2023-04-19T18:16:23.114Z,55.67
2023-04-19T18:18:50.336Z,68.38
2023-04-19T18:21:18.514Z,55.55
2023-04-19T18:23:45.770Z,70.15
2023-04-19T18:26:12.968Z,81.55
2023-04-19T18:28:40.370Z,83.70
2023-04-19T18:31:08.334Z,88.97
2023-04-19T18:33:35.562Z,78.72
2023-04-19T18:36:02.673Z,61.78
2023-04-19T18:38:29.844Z,49.95
2023-04-19T18:40:57.077Z,39.70
2023-04-19T18:43:24.764Z,41.70
2023-04-19T18:45:55.804Z,44.05
2023-04-19T18:48:27.842Z,43.97
2023-04-19T18:50:55.455Z,54.85
2023-04-19T18:53:24.955Z,52.50
2023-04-19T18:55:55.380Z,38.47
2023-04-19T18:58:22.661Z,33.85
2023-04-19T19:00:49.764Z,28.67
2023-04-19T19:03:48.197Z,31.02
2023-04-19T19:06:04.311Z,29.63
2023-04-19T19:08:34.076Z,31.90
2023-04-19T19:13:31.261Z,33.15
2023-04-19T19:15:58.611Z,35.83
2023-04-19T19:18:27.686Z,48.45
2023-04-19T19:20:59.093Z,42.75
2023-04-19T19:25:58.764Z,41.45
2023-04-19T19:28:26.838Z,45.55
2023-04-19T19:30:54.028Z,40.92
2023-04-19T19:33:21.282Z,45.38
2023-04-19T19:35:48.415Z,45.47
2023-04-19T19:38:16.401Z,42.63
2023-04-19T19:41:17.741Z,45.53
2023-04-19T19:43:30.688Z,52.40
2023-04-19T19:45:57.876Z,51.35
2023-04-19T19:48:29.018Z,51.53
2023-04-19T19:53:28.388Z,110.05
2023-04-19T19:55:56.812Z,131.68
2023-04-19T19:58:47.519Z,123.90
2023-04-19T20:01:11.228Z,110.68
2023-04-19T20:03:38.543Z,97.07
2023-04-19T20:08:41.374Z,88.00
2023-04-19T20:11:11.063Z,85.10
2023-04-19T20:13:38.217Z,82.85
2023-04-19T20:16:06.429Z,82.25
2023-04-19T20:18:37.802Z,89.82
2023-04-19T20:21:05.040Z,74.75
2023-04-19T20:23:32.165Z,95.68
2023-04-19T20:26:01.158Z,112.13
2023-04-19T20:28:28.300Z,85.30
2023-04-19T20:30:55.852Z,76.78
2023-04-19T20:33:23.023Z,115.43
2023-04-19T20:35:50.467Z,109.60
2023-04-19T20:38:18.396Z,87.43
2023-04-19T20:40:45.588Z,72.55
2023-04-19T20:43:12.811Z,74.25
2023-04-19T20:45:39.918Z,92.63
2023-04-19T20:48:08.540Z,83.78
2023-04-19T20:50:36.149Z,167.27
2023-04-19T20:53:03.259Z,405.42
2023-04-19T20:55:30.589Z,121.68
2023-04-19T20:57:57.729Z,77.63
2023-04-19T21:00:24.909Z,67.82
2023-04-19T21:02:52.150Z,59.13
2023-04-19T21:05:19.476Z,59.83
2023-04-19T21:07:46.690Z,60.75
2023-04-19T21:10:13.956Z,59.63
2023-04-19T21:12:41.160Z,77.05
2023-04-19T21:15:08.476Z,92.75
2023-04-19T21:17:36.151Z,77.55
2023-04-19T21:20:04.424Z,80.40
2023-04-19T21:22:31.565Z,176.35
2023-04-19T21:24:58.760Z,187.15
2023-04-19T21:27:25.851Z,116.18
2023-04-19T21:29:53.034Z,104.75
2023-04-19T21:32:20.160Z,217.98
2023-04-19T21:34:48.075Z,197.23
2023-04-19T21:37:16.399Z,155.15
2023-04-19T21:39:43.523Z,154.70
2023-04-19T21:42:11.253Z,93.90
2023-04-19T21:44:38.360Z,77.68
2023-04-19T21:47:05.573Z,83.38
2023-04-19T21:49:33.399Z,79.75
2023-04-19T21:52:00.602Z,79.05
2023-04-19T21:54:33.945Z,101.00
2023-04-19T21:57:01.650Z,83.18
2023-04-19T21:59:29.879Z,63.55
2023-04-19T22:01:57.184Z,78.95
2023-04-19T22:04:24.443Z,89.95
2023-04-19T22:06:51.601Z,229.30
2023-04-19T22:09:19.330Z,139.95
2023-04-19T22:11:46.447Z,123.78
2023-04-19T22:14:13.622Z,86.82
2023-04-19T22:16:42.184Z,87.85
2023-04-19T22:19:09.380Z,76.43
2023-04-19T22:21:36.513Z,77.57
2023-04-19T22:24:03.766Z,88.47
2023-04-19T22:26:30.911Z,95.82
2023-04-19T22:28:58.086Z,79.97
2023-04-19T22:31:26.062Z,71.43
2023-04-19T22:33:53.270Z,68.78
2023-04-19T22:36:20.631Z,58.30
2023-04-19T22:38:47.861Z,62.47
2023-04-19T22:41:15.932Z,62.22
2023-04-19T22:43:43.140Z,53.25
2023-04-19T22:46:10.296Z,61.58
2023-04-19T22:48:37.801Z,61.45
2023-04-19T22:51:04.988Z,61.58
2023-04-19T22:53:32.101Z,56.10
2023-04-19T22:55:59.208Z,90.30
2023-04-19T22:58:26.378Z,85.53
2023-04-19T23:00:53.562Z,77.57
2023-04-19T23:03:20.849Z,94.85
2023-04-19T23:05:48.078Z,80.00
2023-04-19T23:08:15.607Z,73.63
2023-04-19T23:10:43.523Z,73.03
2023-04-19T23:13:11.107Z,65.28
2023-04-19T23:15:39.263Z,71.05
2023-04-19T23:18:07.068Z,80.65
2023-04-19T23:20:34.375Z,69.15
2023-04-19T23:23:01.589Z,72.65
2023-04-19T23:25:28.782Z,66.05
2023-04-19T23:27:55.924Z,61.30
2023-04-19T23:30:23.033Z,69.65
2023-04-19T23:32:51.355Z,68.95
2023-04-19T23:35:18.537Z,73.38
2023-04-19T23:37:45.631Z,71.20
2023-04-19T23:40:12.847Z,71.10
2023-04-19T23:42:40.787Z,72.47
2023-04-19T23:45:08.995Z,70.43
2023-04-19T23:47:36.163Z,61.22
2023-04-19T23:50:03.367Z,56.05
2023-04-19T23:52:30.483Z,63.45
2023-04-19T23:54:57.598Z,59.13
2023-04-19T23:57:24.731Z,57.67
2023-04-19T23:59:51.834Z,65.40
